Bar Harbor, ME

2:15 PM EDT on July 27, 2016 (GMT -0400)
College of the Atlantic | | Change Station

Elev 52 ft 44.39 °N, 68.22 °W | Updated 0 second ago

Scattered Clouds
Scattered Clouds
83.0 °F
Feels Like 87 °F
N
3.7
Wind Variable Wind from NNE
Gusts 3.7 mph

Today
High -- | Low -- °F
--% Chance of Precip.
Yesterday
High -- | Low -- °F
Precip. -- in
Pressure 29.88 in
Visibility 10.0 miles
Clouds Scattered Clouds 4800 ft
Heat Index 87 °F
Dew Point 70 °F
Humidity 66%
Rainfall 0.01 in
Snow Depth Not available.
5:15 AM 8:03 PM
Last Quarter, 41% visible
METAR KBHB 271756Z AUTO 19011KT 10SM SCT048 28/19 A2987 RMK AO2 SLP119 T02830189 10289 20233 58005
Pressure 29.88 in
Visibility 10.0 miles
Clouds Scattered Clouds 4800 ft
Heat Index 87 °F
Dew Point 70 °F
Humidity 66%
Rainfall 0.01 in
Snow Depth Not available.
5:15 AM 8:03 PM
Last Quarter, 41% visible
METAR KBHB 271756Z AUTO 19011KT 10SM SCT048 28/19 A2987 RMK AO2 SLP119 T02830189 10289 20233 58005

10-Day Weather Forecast

Almanac

Astronomy

Jul. 27, 2016 Rise Set
Actual Time
Civil Twilight
Nautical Twilight
Astronomical Twilight
Moon
Length of Visible Light
Length of Day
Tomorrow will be .
, % of the Moon is Illuminated

Today's Extremes

State Highs State Lows

Community

WunderPhotos

Upload Photos

1,927,894 photos uploaded!

WunderBlog® & News

Nearby

Air Quality

  Air Quality AQ Index Pollutant
Not available.

Snow Depth

Station Depth Elevation

Earthquake Activity

City Distance Mag. Time & Date
Minimum magnitude displayed is 2.5.

Coastal Water Temperatures

Place Temperature

Stations

Nearby Weather Stations

Station Location Temp. Windchill Dew Point Humidity Wind Precip. Elev Updated Type
                   

Watches & Warnings

There are currently no watches in effect.